Time;durP1;ratioP1;P1;durP2;ratioP2;P2;SDS_P1;SDS_P2;PMS_P1;PMS_P2;Temp;Humidity;BMP_temperature;BMP_pressure;BME280_temperature;BME280_humidity;BME280_pressure;Samples;Min_cycle;Max_cycle;Signal;HPM_P1;HPM_P2
2023/08/01 00:01:14;;;;;;;7.25;4.05;;;17.60;99.90;;;;;;10430819;28;20279;-78
2023/08/01 00:06:35;;;;;;;6.82;3.25;;;17.60;1.00;;;;;;10403147;28;20202;-80
2023/08/01 00:11:56;;;;;;;10.25;3.85;;;17.60;1.00;;;;;;10386026;28;20196;-79
2023/08/01 00:17:17;;;;;;;4.82;3.40;;;17.60;99.50;;;;;;10400063;28;20414;-83
2023/08/01 00:22:38;;;;;;;5.72;3.25;;;17.60;1.00;;;;;;10392511;28;20273;-81
2023/08/01 00:27:59;;;;;;;3.90;3.00;;;17.50;99.90;;;;;;10384400;28;20201;-79
2023/08/01 00:33:21;;;;;;;5.85;3.42;;;17.40;1.00;;;;;;10437026;28;20200;-82
2023/08/01 00:38:43;;;;;;;5.55;2.50;;;17.30;1.00;;;;;;10395977;28;20298;-82
2023/08/01 00:44:04;;;;;;;7.25;2.90;;;17.30;1.00;;;;;;10405142;28;20196;-80
2023/08/01 00:49:25;;;;;;;5.65;2.53;;;17.30;1.00;;;;;;10403992;28;20199;-79
2023/08/01 00:54:48;;;;;;;3.40;2.75;;;17.20;1.00;;;;;;10407145;28;20211;-78
2023/08/01 01:00:09;;;;;;;4.32;2.47;;;17.20;1.00;;;;;;10380410;28;20224;-77
2023/08/01 01:05:38;;;;;;;3.45;2.60;;;17.10;1.00;;;;;;10389726;28;20314;-81
2023/08/01 01:10:59;;;;;;;3.15;2.35;;;17.10;1.00;;;;;;10390995;28;20196;-81
2023/08/01 01:16:21;;;;;;;3.08;2.60;;;17.10;1.00;;;;;;10399349;28;20561;-81
2023/08/01 01:21:42;;;;;;;3.75;3.38;;;17.10;1.00;;;;;;10402375;28;20214;-78
2023/08/01 01:27:05;;;;;;;5.55;3.65;;;17.10;1.00;;;;;;10389172;28;20242;-78
2023/08/01 01:32:27;;;;;;;5.57;3.72;;;17.10;1.00;;;;;;10443656;28;20253;-80
2023/08/01 01:37:48;;;;;;;7.10;4.22;;;17.10;1.00;;;;;;10408758;28;20551;-78
2023/08/01 01:43:09;;;;;;;4.22;3.38;;;17.00;1.00;;;;;;10428288;28;20275;-78
2023/08/01 01:48:30;;;;;;;5.03;3.30;;;17.00;1.00;;;;;;10442057;28;20481;-80
2023/08/01 01:53:52;;;;;;;8.18;4.00;;;17.10;1.00;;;;;;10411941;28;20276;-79
2023/08/01 01:59:13;;;;;;;6.47;3.90;;;17.10;1.00;;;;;;10400339;28;20302;-80
2023/08/01 02:04:34;;;;;;;6.28;3.00;;;17.00;1.00;;;;;;10427042;28;20238;-79
2023/08/01 02:09:56;;;;;;;6.07;3.40;;;17.10;1.00;;;;;;10414213;28;20235;-78
2023/08/01 02:15:17;;;;;;;5.22;3.13;;;17.00;1.00;;;;;;10417532;28;20229;-80
2023/08/01 02:20:38;;;;;;;4.32;3.10;;;17.10;1.00;;;;;;10389897;28;20196;-81
2023/08/01 02:25:59;;;;;;;5.55;3.25;;;17.10;1.00;;;;;;10373480;28;20384;-82
2023/08/01 02:31:21;;;;;;;5.88;3.22;;;17.10;99.90;;;;;;10387822;28;20196;-83
2023/08/01 02:36:42;;;;;;;4.90;3.05;;;17.00;99.90;;;;;;10404121;28;20273;-82
2023/08/01 02:42:03;;;;;;;5.60;2.65;;;17.00;99.90;;;;;;10417304;28;20191;-83
2023/08/01 02:47:24;;;;;;;4.65;3.53;;;17.00;99.90;;;;;;10421117;28;20497;-82
2023/08/01 02:52:46;;;;;;;6.28;3.45;;;17.00;99.90;;;;;;10441168;28;20210;-82
2023/08/01 02:58:07;;;;;;;5.05;3.38;;;17.00;89.60;;;;;;10424540;28;20302;-79
2023/08/01 03:03:28;;;;;;;4.25;3.10;;;17.10;99.90;;;;;;10440234;28;20228;-83
2023/08/01 03:08:51;;;;;;;5.40;2.95;;;17.10;23.70;;;;;;10386543;28;20205;-82
2023/08/01 03:14:12;;;;;;;4.60;3.03;;;17.10;1.00;;;;;;10381707;28;20200;-79
2023/08/01 03:19:33;;;;;;;5.90;3.47;;;17.10;1.00;;;;;;10387607;28;20254;-82
2023/08/01 03:24:55;;;;;;;4.95;3.17;;;17.10;1.00;;;;;;10384104;28;20311;-78
2023/08/01 03:30:16;;;;;;;5.53;3.05;;;17.10;1.00;;;;;;10415967;28;20224;-78
2023/08/01 03:35:37;;;;;;;5.40;3.00;;;17.20;1.00;;;;;;10401505;28;20277;-79
2023/08/01 03:40:59;;;;;;;5.10;2.75;;;17.10;1.00;;;;;;10389031;28;20203;-81
2023/08/01 03:46:21;;;;;;;6.03;4.00;;;17.10;61.30;;;;;;10392437;28;20215;-83
2023/08/01 03:51:42;;;;;;;5.15;3.53;;;17.10;1.00;;;;;;10428598;28;20211;-79
2023/08/01 03:57:04;;;;;;;5.57;3.90;;;17.10;69.50;;;;;;10438462;28;20239;-81
2023/08/01 04:02:27;;;;;;;5.82;3.58;;;17.10;99.90;;;;;;10405885;28;20310;-79
2023/08/01 04:07:48;;;;;;;5.25;3.45;;;17.00;99.90;;;;;;10449191;28;20547;-78
2023/08/01 04:13:09;;;;;;;7.15;3.92;;;17.10;99.90;;;;;;10401006;28;20489;-78
2023/08/01 04:18:30;;;;;;;7.18;4.32;;;17.10;99.90;;;;;;10365562;28;20545;-79
2023/08/01 04:23:51;;;;;;;6.93;3.67;;;17.00;1.00;;;;;;10398887;28;20427;-79
2023/08/01 04:29:15;;;;;;;6.57;3.45;;;17.10;1.00;;;;;;10395949;28;20280;-80
2023/08/01 04:34:36;;;;;;;5.05;3.25;;;17.00;1.00;;;;;;10426043;28;20227;-82
2023/08/01 04:39:57;;;;;;;5.25;3.45;;;16.90;1.00;;;;;;10402961;28;20210;-77
2023/08/01 04:45:18;;;;;;;11.25;3.88;;;16.90;1.00;;;;;;10450461;28;20230;-77
2023/08/01 04:50:40;;;;;;;6.15;3.92;;;16.90;1.00;;;;;;10404832;28;20200;-79
2023/08/01 04:56:01;;;;;;;6.90;3.60;;;16.90;1.00;;;;;;10420343;28;20220;-80
2023/08/01 05:01:22;;;;;;;5.35;3.53;;;17.00;1.00;;;;;;10436247;28;20186;-79
2023/08/01 05:06:43;;;;;;;7.57;3.63;;;17.00;1.00;;;;;;10423886;28;20551;-81
2023/08/01 05:12:05;;;;;;;7.25;3.85;;;17.00;1.00;;;;;;10436237;28;20191;-82
2023/08/01 05:17:26;;;;;;;7.00;3.72;;;17.00;1.00;;;;;;10396767;28;20346;-79
2023/08/01 05:22:47;;;;;;;5.95;3.45;;;17.00;1.00;;;;;;10381349;28;20193;-83
2023/08/01 05:28:09;;;;;;;5.28;3.53;;;17.00;1.00;;;;;;10383032;28;20202;-84
2023/08/01 05:33:31;;;;;;;7.72;4.13;;;17.00;1.00;;;;;;10407686;28;20235;-85
2023/08/01 05:38:52;;;;;;;7.50;4.50;;;17.00;1.00;;;;;;10418576;28;20538;-78
2023/08/01 05:44:13;;;;;;;8.45;4.03;;;16.90;1.00;;;;;;10432364;28;20192;-79
2023/08/01 05:49:34;;;;;;;6.80;3.80;;;17.00;62.30;;;;;;10417554;28;20203;-84
2023/08/01 05:54:55;;;;;;;8.38;4.50;;;17.10;56.70;;;;;;10419584;28;20534;-78
2023/08/01 06:00:16;;;;;;;5.32;4.00;;;17.00;58.90;;;;;;10420705;28;20202;-79
2023/08/01 06:05:38;;;;;;;6.00;4.03;;;17.10;99.90;;;;;;10417969;28;20254;-79
2023/08/01 06:10:59;;;;;;;6.63;3.88;;;17.10;99.90;;;;;;10442705;28;20194;-84
2023/08/01 06:16:20;;;;;;;8.10;3.92;;;17.10;99.90;;;;;;10414660;28;20226;-81
2023/08/01 06:21:42;;;;;;;5.90;3.90;;;17.10;99.90;;;;;;10441171;28;20485;-82
2023/08/01 06:27:05;;;;;;;8.13;4.72;;;17.10;72.70;;;;;;10390096;28;20235;-82
2023/08/01 06:32:26;;;;;;;6.30;4.63;;;17.10;50.90;;;;;;10402144;28;20219;-82
2023/08/01 06:37:47;;;;;;;6.57;4.10;;;17.10;37.30;;;;;;10395300;28;20244;-83
2023/08/01 06:43:09;;;;;;;7.20;4.55;;;17.10;90.80;;;;;;10383067;28;20205;-81
2023/08/01 06:48:34;;;;;;;8.02;4.82;;;17.00;92.90;;;;;;10402305;28;20208;-78
2023/08/01 06:53:55;;;;;;;10.93;6.35;;;16.90;99.90;;;;;;10437799;28;20198;-82
2023/08/01 06:59:17;;;;;;;7.55;3.85;;;16.90;99.90;;;;;;10441449;28;20525;-80
2023/08/01 07:04:38;;;;;;;9.00;4.70;;;16.90;99.90;;;;;;10406598;28;20229;-80
2023/08/01 07:09:59;;;;;;;5.63;3.15;;;16.80;99.90;;;;;;10422843;28;20225;-81
2023/08/01 07:15:20;;;;;;;5.88;3.50;;;16.90;99.90;;;;;;10410623;28;20248;-80
2023/08/01 07:20:42;;;;;;;4.70;3.50;;;16.80;99.90;;;;;;10395820;28;20227;-80
2023/08/01 07:26:03;;;;;;;5.38;3.25;;;16.90;99.90;;;;;;10374573;28;20244;-80
2023/08/01 07:31:25;;;;;;;3.78;2.42;;;17.00;99.90;;;;;;10455261;28;20269;-81
2023/08/01 07:36:50;;;;;;;3.60;2.60;;;17.00;99.90;;;;;;10401408;28;20235;-83
2023/08/01 07:42:12;;;;;;;11.75;7.22;;;17.10;99.90;;;;;;10388792;28;20302;-84
2023/08/01 07:47:33;;;;;;;5.47;4.90;;;17.10;99.90;;;;;;10398462;28;20243;-78
2023/08/01 07:52:55;;;;;;;5.32;4.20;;;17.10;99.90;;;;;;10432131;28;20279;-79
2023/08/01 07:58:16;;;;;;;4.20;3.05;;;17.20;99.90;;;;;;10424593;28;20231;-78
2023/08/01 08:03:37;;;;;;;3.38;2.55;;;17.30;99.90;;;;;;10424547;28;20546;-81
2023/08/01 08:08:58;;;;;;;2.90;2.10;;;17.30;99.90;;;;;;10376568;28;20208;-81
2023/08/01 08:14:21;;;;;;;2.30;2.10;;;17.20;99.90;;;;;;10430456;28;20425;-82
2023/08/01 08:19:42;;;;;;;4.28;2.70;;;17.10;99.90;;;;;;10431652;28;20425;-78
2023/08/01 08:25:04;;;;;;;4.30;2.47;;;17.20;99.90;;;;;;10414290;28;20868;-78
2023/08/01 08:30:25;;;;;;;3.30;2.28;;;17.10;99.90;;;;;;10431735;28;20494;-77
2023/08/01 08:35:46;;;;;;;4.53;2.78;;;17.10;99.90;;;;;;10387384;28;20207;-78
2023/08/01 08:41:27;;;;;;;32.17;25.05;;;17.20;99.90;;;;;;10400329;28;20207;-82
2023/08/01 08:46:52;;;;;;;14.02;12.65;;;17.20;99.90;;;;;;10385308;28;20265;-82
2023/08/01 08:52:14;;;;;;;17.67;8.32;;;17.20;99.90;;;;;;10430750;28;20237;-78
2023/08/01 08:57:36;;;;;;;5.43;3.63;;;17.20;99.90;;;;;;10429240;28;20227;-82
2023/08/01 09:02:57;;;;;;;11.23;7.20;;;17.20;99.90;;;;;;10430672;28;20251;-81
2023/08/01 09:08:21;;;;;;;23.20;11.20;;;17.10;99.90;;;;;;10412594;28;20525;-79
2023/08/01 09:13:43;;;;;;;18.17;8.60;;;17.20;99.90;;;;;;10431644;28;20204;-80
2023/08/01 09:19:06;;;;;;;7.97;5.28;;;17.20;99.90;;;;;;10416784;28;20239;-80
2023/08/01 09:24:27;;;;;;;10.02;6.50;;;17.20;99.90;;;;;;10404843;28;20209;-79
2023/08/01 09:29:48;;;;;;;10.45;4.90;;;17.20;99.90;;;;;;10388266;28;20512;-81
2023/08/01 09:35:10;;;;;;;11.07;8.25;;;17.20;99.90;;;;;;10417222;28;20237;-81
2023/08/01 09:40:38;;;;;;;6.57;5.03;;;17.20;99.90;;;;;;10427728;28;20227;-89
2023/08/01 09:45:59;;;;;;;10.15;7.38;;;17.10;99.90;;;;;;10409672;28;20491;-77
2023/08/01 09:51:20;;;;;;;15.00;7.95;;;17.10;99.90;;;;;;10410805;28;20229;-93
2023/08/01 09:56:45;;;;;;;31.15;16.83;;;17.20;99.90;;;;;;10425996;28;20219;-81
2023/08/01 10:02:14;;;;;;;9.07;6.25;;;17.20;99.90;;;;;;10404588;28;20268;-79
2023/08/01 10:07:41;;;;;;;8.23;5.68;;;17.20;99.90;;;;;;10428357;28;20279;-75
2023/08/01 10:13:02;;;;;;;9.40;5.20;;;17.20;99.90;;;;;;10436269;28;20393;-78
2023/08/01 10:18:24;;;;;;;5.88;4.68;;;17.30;99.90;;;;;;10435378;28;20584;-78
2023/08/01 10:23:46;;;;;;;11.85;8.05;;;17.30;99.90;;;;;;10422013;28;20195;-83
2023/08/01 10:29:08;;;;;;;7.03;4.57;;;17.40;99.90;;;;;;10415510;28;20231;-77
2023/08/01 10:34:29;;;;;;;6.95;5.57;;;17.50;99.90;;;;;;10422512;28;20276;-75
2023/08/01 10:40:00;;;;;;;6.30;4.30;;;17.50;99.90;;;;;;10434811;28;20277;-78
2023/08/01 10:45:23;;;;;;;6.18;3.90;;;17.50;99.90;;;;;;10434586;28;20290;-81
2023/08/01 10:50:56;;;;;;;11.02;4.93;;;17.50;99.90;;;;;;10376971;28;20193;-79
2023/08/01 10:56:19;;;;;;;10.50;6.13;;;17.50;99.90;;;;;;10404191;28;20228;-75
2023/08/01 11:01:52;;;;;;;7.28;4.90;;;17.60;99.90;;;;;;10418126;28;20238;-85
2023/08/01 11:07:13;;;;;;;5.15;4.05;;;17.60;99.90;;;;;;10434790;28;20218;-77
2023/08/01 11:12:38;;;;;;;5.82;4.40;;;17.70;99.90;;;;;;10393149;28;20212;-80
2023/08/01 11:17:59;;;;;;;9.93;6.05;;;17.60;99.90;;;;;;10438717;28;20266;-77
2023/08/01 11:23:29;;;;;;;8.02;6.20;;;17.60;99.90;;;;;;10444978;28;20201;-81
2023/08/01 11:28:51;;;;;;;10.00;5.30;;;17.60;99.90;;;;;;10428541;28;20215;-83
2023/08/01 11:34:12;;;;;;;9.88;5.32;;;17.70;99.90;;;;;;10434782;28;20210;-84
2023/08/01 11:39:34;;;;;;;7.70;5.70;;;17.80;99.90;;;;;;10416214;28;20255;-76
2023/08/01 11:45:07;;;;;;;6.43;5.07;;;18.00;99.90;;;;;;10433908;28;20284;-75
2023/08/01 11:50:29;;;;;;;9.45;5.57;;;18.00;99.90;;;;;;10418971;28;20208;-85
2023/08/01 11:55:52;;;;;;;16.08;10.05;;;18.00;99.90;;;;;;10415034;28;20441;-75
2023/08/01 12:01:14;;;;;;;5.63;5.03;;;18.00;99.90;;;;;;10373884;28;20216;-75
2023/08/01 12:06:38;;;;;;;7.05;5.15;;;18.00;99.90;;;;;;10425359;28;20215;-76
2023/08/01 12:12:04;;;;;;;8.23;5.32;;;18.00;99.90;;;;;;10403942;28;20287;-76
2023/08/01 12:17:26;;;;;;;8.43;4.97;;;17.90;99.90;;;;;;10392735;28;20235;-77
2023/08/01 12:22:47;;;;;;;4.85;3.83;;;17.80;99.90;;;;;;10427599;28;20207;-76
2023/08/01 12:28:08;;;;;;;5.65;3.58;;;17.80;99.90;;;;;;10400353;28;20211;-74
2023/08/01 12:33:30;;;;;;;5.80;4.03;;;17.80;99.90;;;;;;10416675;28;20695;-75
2023/08/01 12:38:51;;;;;;;6.88;3.92;;;17.90;99.90;;;;;;10413431;28;20298;-74
2023/08/01 12:44:15;;;;;;;5.78;3.78;;;17.90;99.90;;;;;;10412232;28;20219;-75
2023/08/01 12:49:36;;;;;;;4.50;3.10;;;17.80;99.90;;;;;;10414086;28;20295;-75
2023/08/01 12:54:59;;;;;;;4.30;2.88;;;17.90;99.90;;;;;;10429122;28;20457;-75
2023/08/01 13:00:20;;;;;;;2.92;2.28;;;18.00;99.90;;;;;;10399477;28;20315;-79
2023/08/01 13:05:42;;;;;;;2.92;2.20;;;18.10;99.90;;;;;;10410362;28;20262;-75
2023/08/01 13:11:11;;;;;;;3.63;1.98;;;18.20;99.90;;;;;;10369328;28;20216;-75
2023/08/01 13:16:32;;;;;;;18.17;14.02;;;18.30;99.90;;;;;;10391972;28;20213;-76
2023/08/01 13:21:53;;;;;;;6.20;4.60;;;18.40;99.90;;;;;;10372809;28;20228;-77
2023/08/01 13:27:15;;;;;;;2.53;2.33;;;18.40;99.90;;;;;;10441216;28;20490;-76
2023/08/01 13:32:36;;;;;;;2.15;1.98;;;18.40;99.90;;;;;;10436571;28;20206;-76
2023/08/01 13:37:57;;;;;;;1.95;1.70;;;18.50;99.90;;;;;;10395710;28;20342;-78
2023/08/01 13:43:18;;;;;;;1.70;1.60;;;18.50;99.90;;;;;;10406607;28;20515;-77
2023/08/01 13:48:40;;;;;;;1.35;1.25;;;18.60;99.90;;;;;;10429300;28;20212;-75
2023/08/01 13:54:02;;;;;;;2.30;2.10;;;18.60;99.90;;;;;;10416766;28;20204;-79
2023/08/01 13:59:23;;;;;;;3.42;2.50;;;18.50;99.90;;;;;;10428874;28;20220;-75
2023/08/01 14:04:44;;;;;;;4.68;2.08;;;18.40;99.90;;;;;;10425974;28;20486;-75
2023/08/01 14:10:06;;;;;;;2.60;1.60;;;18.50;99.90;;;;;;10428099;28;20188;-79
2023/08/01 14:15:27;;;;;;;2.65;1.77;;;18.50;99.90;;;;;;10427005;28;20276;-75
2023/08/01 14:20:49;;;;;;;4.22;2.03;;;18.70;99.90;;;;;;10427244;28;20570;-79
2023/08/01 14:26:10;;;;;;;3.90;1.83;;;18.90;99.90;;;;;;10431050;28;20212;-77
2023/08/01 14:31:31;;;;;;;3.70;1.90;;;19.10;99.90;;;;;;10412871;28;20217;-76
2023/08/01 14:36:53;;;;;;;4.18;1.90;;;19.20;99.90;;;;;;10430583;28;20532;-74
2023/08/01 14:42:14;;;;;;;2.38;2.10;;;19.20;66.00;;;;;;10435938;28;20327;-76
2023/08/01 14:47:37;;;;;;;3.38;1.60;;;19.20;92.10;;;;;;10432675;28;20756;-76
2023/08/01 14:52:58;;;;;;;1.98;1.20;;;19.30;69.10;;;;;;10433167;28;20192;-77
2023/08/01 14:58:19;;;;;;;2.83;1.40;;;19.30;26.10;;;;;;10432726;28;20464;-76
2023/08/01 15:03:40;;;;;;;2.78;1.15;;;19.30;58.00;;;;;;10434481;28;20235;-76
2023/08/01 15:09:01;;;;;;;1.33;1.17;;;19.30;1.00;;;;;;10419751;28;20204;-77
2023/08/01 15:14:23;;;;;;;5.00;1.77;;;19.20;1.00;;;;;;10421030;28;20391;-80
2023/08/01 15:19:44;;;;;;;3.85;2.03;;;19.20;1.00;;;;;;10439730;28;20220;-79
2023/08/01 15:25:06;;;;;;;2.92;2.03;;;19.10;1.00;;;;;;10438265;28;20192;-81
2023/08/01 15:30:28;;;;;;;5.15;1.90;;;19.00;1.00;;;;;;10398250;28;20389;-79
2023/08/01 15:35:49;;;;;;;2.00;1.63;;;19.00;1.00;;;;;;10398042;28;20200;-76
2023/08/01 15:41:10;;;;;;;1.92;1.50;;;19.10;1.00;;;;;;10421057;28;20255;-76
2023/08/01 15:46:32;;;;;;;2.40;1.60;;;19.20;26.40;;;;;;10439002;28;20267;-76
2023/08/01 15:51:54;;;;;;;2.63;2.00;;;19.20;40.20;;;;;;10420918;28;20239;-79
2023/08/01 15:57:15;;;;;;;1.80;1.60;;;19.10;96.30;;;;;;10437532;28;20226;-78
2023/08/01 16:02:36;;;;;;;3.15;2.85;;;19.10;81.30;;;;;;10420752;28;20239;-81
2023/08/01 16:07:58;;;;;;;12.48;10.23;;;19.00;57.50;;;;;;10437187;28;20196;-77
2023/08/01 16:13:19;;;;;;;5.32;4.25;;;19.00;93.40;;;;;;10437325;28;20196;-78
2023/08/01 16:18:41;;;;;;;4.20;2.30;;;19.00;90.80;;;;;;10437581;28;20216;-77
2023/08/01 16:24:02;;;;;;;2.55;2.05;;;19.00;94.60;;;;;;10435546;28;20192;-77
2023/08/01 16:29:23;;;;;;;3.28;1.90;;;18.90;99.90;;;;;;10429892;28;20258;-77
2023/08/01 16:34:45;;;;;;;5.75;2.15;;;18.90;99.90;;;;;;10421438;28;20367;-77
2023/08/01 16:40:07;;;;;;;4.88;1.92;;;19.00;99.90;;;;;;10412861;28;20224;-77
2023/08/01 16:45:28;;;;;;;5.68;1.70;;;19.00;66.10;;;;;;10418718;28;20471;-76
2023/08/01 16:50:49;;;;;;;5.07;3.13;;;18.90;99.90;;;;;;10438242;28;20204;-77
2023/08/01 16:56:11;;;;;;;5.30;2.90;;;18.90;93.00;;;;;;10410289;28;20192;-78
2023/08/01 17:01:32;;;;;;;2.15;1.95;;;18.80;99.90;;;;;;10396408;28;20240;-79
2023/08/01 17:06:53;;;;;;;1.70;1.42;;;18.90;99.90;;;;;;10435132;28;20199;-79
2023/08/01 17:12:14;;;;;;;1.70;1.60;;;18.80;99.90;;;;;;10436291;28;20275;-80
2023/08/01 17:17:36;;;;;;;2.47;1.35;;;18.70;99.90;;;;;;10435623;28;20290;-77
2023/08/01 17:22:57;;;;;;;1.65;1.55;;;18.70;99.90;;;;;;10447620;28;20207;-76
2023/08/01 17:28:19;;;;;;;2.58;1.95;;;18.70;99.90;;;;;;10435946;28;20192;-77
2023/08/01 17:33:40;;;;;;;1.50;1.40;;;18.60;99.90;;;;;;10435512;28;20558;-82
2023/08/01 17:39:01;;;;;;;3.00;1.80;;;18.50;99.90;;;;;;10419273;28;20215;-77
2023/08/01 17:44:23;;;;;;;2.33;1.58;;;18.50;99.90;;;;;;10435600;28;20200;-76
2023/08/01 17:49:45;;;;;;;2.40;1.65;;;18.50;99.90;;;;;;10419846;28;20216;-77
2023/08/01 17:55:07;;;;;;;3.40;2.30;;;18.40;99.90;;;;;;10445134;28;20268;-78
2023/08/01 18:00:29;;;;;;;2.13;1.80;;;18.40;99.90;;;;;;10439507;28;20255;-76
2023/08/01 18:05:50;;;;;;;4.10;2.45;;;18.30;99.90;;;;;;10439813;28;20565;-77
2023/08/01 18:11:13;;;;;;;3.38;1.80;;;18.30;99.90;;;;;;10391377;28;20223;-76
2023/08/01 18:16:34;;;;;;;2.13;1.75;;;18.20;99.90;;;;;;10442598;28;20479;-79
2023/08/01 18:21:55;;;;;;;2.83;1.90;;;18.10;99.90;;;;;;10457724;28;20428;-77
2023/08/01 18:27:17;;;;;;;2.10;1.67;;;18.00;99.90;;;;;;10441772;28;20196;-76
2023/08/01 18:32:38;;;;;;;1.75;1.63;;;18.00;99.90;;;;;;10425242;28;20283;-81
2023/08/01 18:37:59;;;;;;;3.88;3.13;;;17.90;99.90;;;;;;10442080;28;20236;-76
2023/08/01 18:43:20;;;;;;;3.63;2.00;;;17.80;99.90;;;;;;10425313;28;20204;-76
2023/08/01 18:48:42;;;;;;;3.80;2.40;;;17.80;99.90;;;;;;10441870;28;20223;-75
2023/08/01 18:54:04;;;;;;;3.40;2.10;;;17.70;99.90;;;;;;10441294;28;20483;-78
2023/08/01 18:59:25;;;;;;;4.20;2.05;;;17.70;99.90;;;;;;10415473;28;20234;-77
2023/08/01 19:04:47;;;;;;;2.28;1.92;;;17.70;99.90;;;;;;10438748;28;20240;-80
2023/08/01 19:10:09;;;;;;;2.10;1.70;;;17.60;99.90;;;;;;10367554;28;20203;-76
2023/08/01 19:15:31;;;;;;;3.42;1.60;;;17.60;99.90;;;;;;10437045;28;20196;-77
2023/08/01 19:20:52;;;;;;;1.85;1.55;;;17.50;99.90;;;;;;10437269;28;20525;-76
2023/08/01 19:26:13;;;;;;;2.90;1.60;;;17.50;99.90;;;;;;10440094;28;20487;-78
2023/08/01 19:31:34;;;;;;;1.70;1.60;;;17.50;99.90;;;;;;10422158;28;20490;-78
2023/08/01 19:36:58;;;;;;;2.33;1.70;;;17.50;99.90;;;;;;10435037;28;20227;-81
2023/08/01 19:42:19;;;;;;;4.47;1.80;;;17.50;99.90;;;;;;10429016;28;20203;-76
2023/08/01 19:47:40;;;;;;;2.83;2.10;;;17.40;99.90;;;;;;10439389;28;20237;-79
2023/08/01 19:53:01;;;;;;;2.72;1.70;;;17.30;99.90;;;;;;10423529;28;20444;-78
2023/08/01 19:58:23;;;;;;;2.13;1.65;;;17.30;99.90;;;;;;10397665;28;20439;-79
2023/08/01 20:03:44;;;;;;;2.15;1.90;;;17.20;99.90;;;;;;10401577;28;20238;-80
2023/08/01 20:09:05;;;;;;;1.65;1.27;;;17.10;99.90;;;;;;10421354;28;20200;-80
2023/08/01 20:14:26;;;;;;;2.78;1.90;;;17.10;99.90;;;;;;10437991;28;20362;-78
2023/08/01 20:19:47;;;;;;;2.30;1.60;;;17.00;99.90;;;;;;10436753;28;20223;-76
2023/08/01 20:25:10;;;;;;;3.97;1.50;;;17.00;99.90;;;;;;10430580;28;20226;-75
2023/08/01 20:30:34;;;;;;;2.55;1.90;;;16.90;99.90;;;;;;10437964;28;20224;-75
2023/08/01 20:35:57;;;;;;;3.83;1.65;;;16.90;99.90;;;;;;10422337;28;20196;-77
2023/08/01 20:41:18;;;;;;;3.78;1.33;;;16.80;99.90;;;;;;10434721;28;20226;-79
2023/08/01 20:46:39;;;;;;;1.88;1.67;;;16.80;99.90;;;;;;10436937;28;20505;-76
2023/08/01 20:52:01;;;;;;;1.63;1.52;;;16.80;99.90;;;;;;10436652;28;20210;-76
2023/08/01 20:57:22;;;;;;;1.55;1.35;;;16.60;99.90;;;;;;10436203;28;20366;-76
2023/08/01 21:02:43;;;;;;;1.50;1.40;;;16.60;99.90;;;;;;10436485;28;20245;-77
2023/08/01 21:08:04;;;;;;;3.13;1.67;;;16.60;99.90;;;;;;10434912;28;20555;-79
2023/08/01 21:13:25;;;;;;;2.38;1.70;;;16.50;99.90;;;;;;10436328;28;20513;-77
2023/08/01 21:18:47;;;;;;;2.17;1.95;;;16.50;99.90;;;;;;10421281;28;20222;-78
2023/08/01 21:24:09;;;;;;;7.43;2.20;;;16.50;99.90;;;;;;10434922;28;20207;-78
2023/08/01 21:29:30;;;;;;;2.10;1.60;;;16.50;99.90;;;;;;10436161;28;20381;-80
2023/08/01 21:34:54;;;;;;;2.13;1.90;;;16.50;99.90;;;;;;10383840;28;20190;-77
2023/08/01 21:40:16;;;;;;;2.42;1.80;;;16.50;99.90;;;;;;10400858;28;20536;-78
2023/08/01 21:45:36;;;;;;;2.85;2.10;;;16.60;99.90;;;;;;10428961;28;20238;-77
2023/08/01 21:50:58;;;;;;;3.58;3.00;;;16.60;99.90;;;;;;10443524;28;20527;-82
2023/08/01 21:56:19;;;;;;;2.85;2.25;;;16.60;99.90;;;;;;10442252;28;20203;-79
2023/08/01 22:01:40;;;;;;;2.40;2.20;;;16.60;99.90;;;;;;10443324;28;20257;-79
2023/08/01 22:07:01;;;;;;;3.42;2.70;;;16.60;99.90;;;;;;10442655;28;20380;-79
2023/08/01 22:12:22;;;;;;;4.03;2.50;;;16.60;99.90;;;;;;10425166;28;20234;-79
2023/08/01 22:17:43;;;;;;;5.95;3.33;;;16.60;99.90;;;;;;10442919;28;20213;-76
2023/08/01 22:23:04;;;;;;;5.95;3.72;;;16.60;99.90;;;;;;10424020;28;20206;-76
2023/08/01 22:28:30;;;;;;;3.92;3.60;;;16.60;99.90;;;;;;10442410;28;20409;-79
2023/08/01 22:33:50;;;;;;;4.28;3.88;;;16.70;99.90;;;;;;10441922;28;20196;-76
2023/08/01 22:39:14;;;;;;;5.90;3.67;;;16.60;99.90;;;;;;10440831;28;20246;-76
2023/08/01 22:44:36;;;;;;;5.03;3.78;;;16.60;99.90;;;;;;10441667;28;20242;-79
2023/08/01 22:49:57;;;;;;;4.93;3.67;;;16.60;99.90;;;;;;10423649;28;20462;-78
2023/08/01 22:55:24;;;;;;;5.00;4.50;;;16.60;99.90;;;;;;10440003;28;20235;-75
2023/08/01 23:00:45;;;;;;;5.72;3.78;;;16.50;99.90;;;;;;10441149;28;20217;-76
2023/08/01 23:06:07;;;;;;;5.70;3.67;;;16.40;99.90;;;;;;10440465;28;20234;-77
2023/08/01 23:11:29;;;;;;;4.20;3.42;;;16.30;99.90;;;;;;10438307;28;20207;-80
2023/08/01 23:16:54;;;;;;;4.65;3.33;;;16.20;99.90;;;;;;10440597;28;20262;-75
2023/08/01 23:22:17;;;;;;;3.78;3.25;;;16.20;99.90;;;;;;10438833;28;20229;-79
2023/08/01 23:27:38;;;;;;;3.55;3.20;;;16.10;99.90;;;;;;10441582;28;20278;-77
2023/08/01 23:33:01;;;;;;;5.15;3.40;;;16.10;99.90;;;;;;10410927;28;20221;-77
2023/08/01 23:38:24;;;;;;;3.85;3.35;;;16.10;99.90;;;;;;10438473;28;20231;-77
2023/08/01 23:43:47;;;;;;;3.47;3.17;;;16.10;99.90;;;;;;10439446;28;20206;-76
2023/08/01 23:49:10;;;;;;;4.10;3.35;;;16.00;99.90;;;;;;10421319;28;20198;-76
2023/08/01 23:54:31;;;;;;;3.15;2.95;;;16.00;99.90;;;;;;10432208;28;20210;-80
2023/08/01 23:59:53;;;;;;;5.80;3.30;;;16.00;99.90;;;;;;10423522;28;20231;-76
